sensor_id;sensor_type;location;lat;lon;timestamp;pressure;altitude;pressure_sealevel;temperature;humidity
11621;BME280;5866;49.094;11.900;2023-05-23T00:01:15;95740.72;;;19.08;75.45
11621;BME280;5866;49.094;11.900;2023-05-23T00:03:43;95737.09;;;19.73;70.30
11621;BME280;5866;49.094;11.900;2023-05-23T00:06:12;95739.38;;;20.11;67.09
11621;BME280;5866;49.094;11.900;2023-05-23T00:08:40;95743.00;;;19.94;68.10
11621;BME280;5866;49.094;11.900;2023-05-23T00:11:09;95741.38;;;19.51;70.11
11621;BME280;5866;49.094;11.900;2023-05-23T00:13:36;95737.09;;;19.73;68.96
11621;BME280;5866;49.094;11.900;2023-05-23T00:16:05;95742.47;;;19.73;68.83
11621;BME280;5866;49.094;11.900;2023-05-23T00:18:35;95744.66;;;19.53;69.65
11621;BME280;5866;49.094;11.900;2023-05-23T00:21:02;95745.09;;;19.50;69.78
11621;BME280;5866;49.094;11.900;2023-05-23T00:23:30;95742.44;;;19.32;71.32
11621;BME280;5866;49.094;11.900;2023-05-23T00:25:59;95744.44;;;19.07;72.86
11621;BME280;5866;49.094;11.900;2023-05-23T00:28:28;95748.34;;;18.93;75.32
11621;BME280;5866;49.094;11.900;2023-05-23T00:30:55;95746.16;;;18.83;75.56
11621;BME280;5866;49.094;11.900;2023-05-23T00:33:23;95754.75;;;18.74;76.71
11621;BME280;5866;49.094;11.900;2023-05-23T00:35:51;95757.44;;;18.74;78.44
11621;BME280;5866;49.094;11.900;2023-05-23T00:38:18;95754.81;;;18.24;83.63
11621;BME280;5866;49.094;11.900;2023-05-23T00:40:46;95762.88;;;17.75;89.69
11621;BME280;5866;49.094;11.900;2023-05-23T00:43:13;95759.59;;;17.73;91.89
11621;BME280;5866;49.094;11.900;2023-05-23T00:45:42;95761.81;;;17.76;91.66
11621;BME280;5866;49.094;11.900;2023-05-23T00:48:10;95765.00;;;18.41;86.79
11621;BME280;5866;49.094;11.900;2023-05-23T00:50:38;95764.25;;;18.09;89.84
11621;BME280;5866;49.094;11.900;2023-05-23T00:53:06;95762.09;;;17.68;94.25
11621;BME280;5866;49.094;11.900;2023-05-23T00:55:33;95773.88;;;17.67;94.76
11621;BME280;5866;49.094;11.900;2023-05-23T00:58:01;95769.78;;;17.58;96.20
11621;BME280;5866;49.094;11.900;2023-05-23T01:00:29;95776.25;;;17.44;97.60
11621;BME280;5866;49.094;11.900;2023-05-23T01:02:58;95769.22;;;17.43;98.19
11621;BME280;5866;49.094;11.900;2023-05-23T01:05:26;95763.84;;;17.50;99.23
11621;BME280;5866;49.094;11.900;2023-05-23T01:07:54;95765.63;;;17.62;99.64
11621;BME280;5866;49.094;11.900;2023-05-23T01:10:24;95762.94;;;17.62;99.39
11621;BME280;5866;49.094;11.900;2023-05-23T01:13:03;95770.88;;;17.51;100.00
11621;BME280;5866;49.094;11.900;2023-05-23T01:15:37;95773.34;;;17.52;100.00
11621;BME280;5866;49.094;11.900;2023-05-23T01:18:10;95772.06;;;17.61;100.00
11621;BME280;5866;49.094;11.900;2023-05-23T01:20:43;95774.56;;;17.56;100.00
11621;BME280;5866;49.094;11.900;2023-05-23T01:26:17;95788.25;;;17.35;100.00
11621;BME280;5866;49.094;11.900;2023-05-23T01:28:54;95784.75;;;17.34;100.00
11621;BME280;5866;49.094;11.900;2023-05-23T01:31:23;95779.63;;;17.26;100.00
11621;BME280;5866;49.094;11.900;2023-05-23T01:33:54;95780.72;;;17.19;100.00
11621;BME280;5866;49.094;11.900;2023-05-23T01:36:22;95789.19;;;17.09;100.00
11621;BME280;5866;49.094;11.900;2023-05-23T01:38:49;95780.13;;;17.10;100.00
11621;BME280;5866;49.094;11.900;2023-05-23T01:41:17;95777.50;;;16.97;100.00
11621;BME280;5866;49.094;11.900;2023-05-23T01:43:45;95779.34;;;16.97;100.00
11621;BME280;5866;49.094;11.900;2023-05-23T01:46:15;95785.50;;;17.04;100.00
11621;BME280;5866;49.094;11.900;2023-05-23T01:48:44;95776.84;;;17.08;100.00
11621;BME280;5866;49.094;11.900;2023-05-23T01:51:12;95781.63;;;17.00;100.00
11621;BME280;5866;49.094;11.900;2023-05-23T01:53:41;95777.50;;;16.97;100.00
11621;BME280;5866;49.094;11.900;2023-05-23T01:56:09;95789.63;;;17.06;100.00
11621;BME280;5866;49.094;11.900;2023-05-23T01:58:37;95784.50;;;17.05;100.00
11621;BME280;5866;49.094;11.900;2023-05-23T02:01:05;95785.09;;;17.07;100.00
11621;BME280;5866;49.094;11.900;2023-05-23T02:03:34;95789.41;;;17.08;100.00
11621;BME280;5866;49.094;11.900;2023-05-23T02:06:02;95787.34;;;17.10;100.00
11621;BME280;5866;49.094;11.900;2023-05-23T02:08:29;95783.03;;;17.09;100.00
11621;BME280;5866;49.094;11.900;2023-05-23T02:10:57;95787.91;;;17.25;100.00
11621;BME280;5866;49.094;11.900;2023-05-23T02:13:25;95788.78;;;17.12;100.00
11621;BME280;5866;49.094;11.900;2023-05-23T02:15:52;95787.41;;;17.34;100.00
11621;BME280;5866;49.094;11.900;2023-05-23T02:18:20;95797.19;;;17.16;100.00
11621;BME280;5866;49.094;11.900;2023-05-23T02:20:48;95792.28;;;17.13;100.00
11621;BME280;5866;49.094;11.900;2023-05-23T02:23:16;95790.22;;;17.15;100.00
11621;BME280;5866;49.094;11.900;2023-05-23T02:25:44;95791.19;;;17.27;100.00
11621;BME280;5866;49.094;11.900;2023-05-23T02:28:11;95795.34;;;17.16;100.00
11621;BME280;5866;49.094;11.900;2023-05-23T02:30:39;95794.13;;;17.19;100.00
11621;BME280;5866;49.094;11.900;2023-05-23T02:33:07;95786.31;;;17.11;100.00
11621;BME280;5866;49.094;11.900;2023-05-23T02:35:34;95786.28;;;17.17;100.00
11621;BME280;5866;49.094;11.900;2023-05-23T02:38:03;95792.25;;;17.19;100.00
11621;BME280;5866;49.094;11.900;2023-05-23T02:40:30;95792.00;;;17.27;100.00
11621;BME280;5866;49.094;11.900;2023-05-23T02:42:58;95789.38;;;17.21;100.00
11621;BME280;5866;49.094;11.900;2023-05-23T02:45:26;95794.13;;;17.19;100.00
11621;BME280;5866;49.094;11.900;2023-05-23T02:47:53;95790.78;;;17.30;100.00
11621;BME280;5866;49.094;11.900;2023-05-23T02:50:21;95796.97;;;17.24;100.00
11621;BME280;5866;49.094;11.900;2023-05-23T02:52:48;95783.19;;;17.14;100.00
11621;BME280;5866;49.094;11.900;2023-05-23T02:55:18;95780.94;;;17.17;100.00
11621;BME280;5866;49.094;11.900;2023-05-23T02:57:45;95789.38;;;17.21;100.00
11621;BME280;5866;49.094;11.900;2023-05-23T03:00:13;95792.91;;;17.15;100.00
11621;BME280;5866;49.094;11.900;2023-05-23T03:02:41;95778.88;;;17.19;100.00
11621;BME280;5866;49.094;11.900;2023-05-23T03:05:09;95778.88;;;17.13;100.00
11621;BME280;5866;49.094;11.900;2023-05-23T03:07:36;95794.09;;;17.25;100.00
11621;BME280;5866;49.094;11.900;2023-05-23T03:10:05;95796.13;;;17.30;100.00
11621;BME280;5866;49.094;11.900;2023-05-23T03:12:34;95794.88;;;17.26;100.00
11621;BME280;5866;49.094;11.900;2023-05-23T03:15:03;95794.72;;;17.21;100.00
11621;BME280;5866;49.094;11.900;2023-05-23T03:17:30;95795.75;;;17.20;100.00
11621;BME280;5866;49.094;11.900;2023-05-23T03:19:58;95788.03;;;17.36;100.00
11621;BME280;5866;49.094;11.900;2023-05-23T03:22:26;95788.41;;;17.53;100.00
11621;BME280;5866;49.094;11.900;2023-05-23T03:24:54;95780.97;;;17.48;100.00
11621;BME280;5866;49.094;11.900;2023-05-23T03:27:21;95782.94;;;17.66;100.00
11621;BME280;5866;49.094;11.900;2023-05-23T03:29:50;95783.22;;;17.83;100.00
11621;BME280;5866;49.094;11.900;2023-05-23T03:32:18;95776.34;;;17.93;100.00
11621;BME280;5866;49.094;11.900;2023-05-23T03:34:46;95784.63;;;17.61;100.00
11621;BME280;5866;49.094;11.900;2023-05-23T03:37:13;95784.75;;;17.34;100.00
11621;BME280;5866;49.094;11.900;2023-05-23T03:39:41;95795.56;;;17.15;100.00
11621;BME280;5866;49.094;11.900;2023-05-23T03:42:09;95789.63;;;17.06;100.00
11621;BME280;5866;49.094;11.900;2023-05-23T03:44:36;95789.91;;;16.92;100.00
11621;BME280;5866;49.094;11.900;2023-05-23T03:47:06;95795.00;;;17.06;100.00
11621;BME280;5866;49.094;11.900;2023-05-23T03:49:34;95791.25;;;17.14;100.00
11621;BME280;5866;49.094;11.900;2023-05-23T03:52:01;95796.63;;;17.07;100.00
11621;BME280;5866;49.094;11.900;2023-05-23T03:54:29;95801.63;;;16.97;100.00
11621;BME280;5866;49.094;11.900;2023-05-23T03:56:57;95793.34;;;16.99;100.00
11621;BME280;5866;49.094;11.900;2023-05-23T03:59:24;95805.94;;;17.05;100.00
11621;BME280;5866;49.094;11.900;2023-05-23T04:01:52;95792.69;;;17.10;100.00
11621;BME280;5866;49.094;11.900;2023-05-23T04:04:21;95796.63;;;17.07;100.00
11621;BME280;5866;49.094;11.900;2023-05-23T04:06:50;95792.94;;;17.02;100.00
11621;BME280;5866;49.094;11.900;2023-05-23T04:09:18;95802.03;;;17.01;100.00
11621;BME280;5866;49.094;11.900;2023-05-23T04:11:46;95798.53;;;16.94;100.00
11621;BME280;5866;49.094;11.900;2023-05-23T04:14:13;95799.16;;;16.96;100.00
11621;BME280;5866;49.094;11.900;2023-05-23T04:16:41;95806.59;;;16.94;100.00
11621;BME280;5866;49.094;11.900;2023-05-23T04:19:10;95809.50;;;16.79;100.00
11621;BME280;5866;49.094;11.900;2023-05-23T04:21:40;95810.34;;;16.80;100.00
11621;BME280;5866;49.094;11.900;2023-05-23T04:24:07;95814.88;;;16.73;100.00
11621;BME280;5866;49.094;11.900;2023-05-23T04:26:35;95807.84;;;16.78;100.00
11621;BME280;5866;49.094;11.900;2023-05-23T04:29:02;95811.97;;;16.87;100.00
11621;BME280;5866;49.094;11.900;2023-05-23T04:31:31;95819.00;;;16.82;100.00
11621;BME280;5866;49.094;11.900;2023-05-23T04:34:00;95822.25;;;16.90;100.00
11621;BME280;5866;49.094;11.900;2023-05-23T04:36:29;95812.69;;;17.14;100.00
11621;BME280;5866;49.094;11.900;2023-05-23T04:38:58;95818.25;;;17.19;100.00
11621;BME280;5866;49.094;11.900;2023-05-23T04:41:25;95818.81;;;17.27;100.00
11621;BME280;5866;49.094;11.900;2023-05-23T04:43:53;95824.72;;;17.42;100.00
11621;BME280;5866;49.094;11.900;2023-05-23T04:46:23;95821.47;;;17.78;100.00
11621;BME280;5866;49.094;11.900;2023-05-23T04:48:52;95822.25;;;17.79;100.00
11621;BME280;5866;49.094;11.900;2023-05-23T04:51:20;95822.97;;;17.99;100.00
11621;BME280;5866;49.094;11.900;2023-05-23T04:53:48;95827.56;;;17.92;100.00
11621;BME280;5866;49.094;11.900;2023-05-23T04:56:17;95818.53;;;18.60;100.00
11621;BME280;5866;49.094;11.900;2023-05-23T04:58:47;95823.13;;;18.96;100.00
11621;BME280;5866;49.094;11.900;2023-05-23T05:01:15;95817.91;;;19.01;100.00
11621;BME280;5866;49.094;11.900;2023-05-23T05:03:42;95820.03;;;19.35;100.00
11621;BME280;5866;49.094;11.900;2023-05-23T05:06:10;95818.22;;;19.47;100.00
11621;BME280;5866;49.094;11.900;2023-05-23T05:08:37;95821.13;;;19.46;100.00
11621;BME280;5866;49.094;11.900;2023-05-23T05:11:06;95818.56;;;19.33;100.00
11621;BME280;5866;49.094;11.900;2023-05-23T05:13:35;95831.88;;;19.10;100.00
11621;BME280;5866;49.094;11.900;2023-05-23T05:16:03;95829.84;;;19.23;100.00
11621;BME280;5866;49.094;11.900;2023-05-23T05:18:30;95834.91;;;19.67;100.00
11621;BME280;5866;49.094;11.900;2023-05-23T05:20:58;95841.94;;;19.32;100.00
11621;BME280;5866;49.094;11.900;2023-05-23T05:23:26;95853.06;;;19.72;100.00
11621;BME280;5866;49.094;11.900;2023-05-23T05:25:55;95854.22;;;19.64;100.00
11621;BME280;5866;49.094;11.900;2023-05-23T05:28:23;95854.88;;;19.60;100.00
11621;BME280;5866;49.094;11.900;2023-05-23T05:30:52;95849.78;;;19.70;100.00
11621;BME280;5866;49.094;11.900;2023-05-23T05:33:20;95848.91;;;19.88;100.00
11621;BME280;5866;49.094;11.900;2023-05-23T05:35:48;95851.63;;;19.69;100.00
11621;BME280;5866;49.094;11.900;2023-05-23T05:38:17;95850.63;;;19.52;100.00
11621;BME280;5866;49.094;11.900;2023-05-23T05:40:45;95862.94;;;19.60;100.00
11621;BME280;5866;49.094;11.900;2023-05-23T05:43:12;95856.78;;;20.30;100.00
11621;BME280;5866;49.094;11.900;2023-05-23T05:45:40;95864.47;;;19.86;100.00
11621;BME280;5866;49.094;11.900;2023-05-23T05:48:09;95869.13;;;20.38;98.12
11621;BME280;5866;49.094;11.900;2023-05-23T05:50:37;95863.91;;;20.25;97.39
11621;BME280;5866;49.094;11.900;2023-05-23T05:53:05;95855.53;;;20.68;92.98
11621;BME280;5866;49.094;11.900;2023-05-23T05:55:33;95855.19;;;20.99;90.61
11621;BME280;5866;49.094;11.900;2023-05-23T05:58:01;95863.88;;;20.66;91.44
11621;BME280;5866;49.094;11.900;2023-05-23T06:00:28;95854.84;;;20.95;89.99
11621;BME280;5866;49.094;11.900;2023-05-23T06:02:56;95874.03;;;20.41;94.27
11621;BME280;5866;49.094;11.900;2023-05-23T06:05:25;95877.72;;;19.99;100.00
11621;BME280;5866;49.094;11.900;2023-05-23T06:07:53;95878.97;;;20.44;99.03
11621;BME280;5866;49.094;11.900;2023-05-23T06:10:20;95880.78;;;20.32;98.15
11621;BME280;5866;49.094;11.900;2023-05-23T06:12:48;95884.13;;;20.80;98.04
11621;BME280;5866;49.094;11.900;2023-05-23T06:15:16;95887.56;;;20.23;100.00
11621;BME280;5866;49.094;11.900;2023-05-23T06:17:44;95891.75;;;20.72;96.25
11621;BME280;5866;49.094;11.900;2023-05-23T06:20:11;95889.78;;;20.67;96.19
11621;BME280;5866;49.094;11.900;2023-05-23T06:22:40;95871.84;;;20.61;95.98
11621;BME280;5866;49.094;11.900;2023-05-23T06:25:08;95896.91;;;20.85;96.01
11621;BME280;5866;49.094;11.900;2023-05-23T06:27:36;95893.50;;;20.66;96.62
11621;BME280;5866;49.094;11.900;2023-05-23T06:30:04;95894.63;;;21.23;91.23
11621;BME280;5866;49.094;11.900;2023-05-23T06:32:35;95893.19;;;20.86;91.68
11621;BME280;5866;49.094;11.900;2023-05-23T06:35:04;95899.84;;;20.95;98.60
11621;BME280;5866;49.094;11.900;2023-05-23T06:37:31;95897.00;;;20.43;100.00
11621;BME280;5866;49.094;11.900;2023-05-23T06:40:01;95897.03;;;21.01;94.13
11621;BME280;5866;49.094;11.900;2023-05-23T06:42:28;95892.91;;;21.57;88.79
11621;BME280;5866;49.094;11.900;2023-05-23T06:44:56;95898.34;;;21.22;87.28
11621;BME280;5866;49.094;11.900;2023-05-23T06:47:23;95901.38;;;20.79;90.73
11621;BME280;5866;49.094;11.900;2023-05-23T06:49:51;95899.66;;;22.22;85.02
11621;BME280;5866;49.094;11.900;2023-05-23T06:52:19;95895.13;;;23.06;78.48
11621;BME280;5866;49.094;11.900;2023-05-23T06:54:46;95897.09;;;23.27;75.06
11621;BME280;5866;49.094;11.900;2023-05-23T06:57:15;95900.47;;;22.39;80.38
11621;BME280;5866;49.094;11.900;2023-05-23T06:59:43;95911.16;;;21.15;84.97
11621;BME280;5866;49.094;11.900;2023-05-23T07:02:10;95918.00;;;20.76;91.80
11621;BME280;5866;49.094;11.900;2023-05-23T07:04:38;95919.94;;;21.10;92.26
11621;BME280;5866;49.094;11.900;2023-05-23T07:07:05;95926.09;;;20.23;98.12
11621;BME280;5866;49.094;11.900;2023-05-23T07:09:33;95930.09;;;20.32;100.00
11621;BME280;5866;49.094;11.900;2023-05-23T07:12:00;95923.84;;;20.62;95.42
11621;BME280;5866;49.094;11.900;2023-05-23T07:14:29;95927.22;;;21.10;93.62
11621;BME280;5866;49.094;11.900;2023-05-23T07:16:57;95927.50;;;20.67;94.00
11621;BME280;5866;49.094;11.900;2023-05-23T07:19:24;95928.09;;;21.62;89.28
11621;BME280;5866;49.094;11.900;2023-05-23T07:21:52;95925.53;;;22.79;79.00
11621;BME280;5866;49.094;11.900;2023-05-23T07:24:19;95926.94;;;22.65;76.26
11621;BME280;5866;49.094;11.900;2023-05-23T07:26:50;95929.56;;;21.29;85.96
11621;BME280;5866;49.094;11.900;2023-05-23T07:29:17;95928.25;;;21.20;89.83
11621;BME280;5866;49.094;11.900;2023-05-23T07:31:46;95936.66;;;20.89;87.37
11621;BME280;5866;49.094;11.900;2023-05-23T07:34:14;95943.25;;;20.93;93.70
11621;BME280;5866;49.094;11.900;2023-05-23T07:36:41;95937.16;;;20.45;96.90
11621;BME280;5866;49.094;11.900;2023-05-23T07:39:09;95947.28;;;21.02;89.74
11621;BME280;5866;49.094;11.900;2023-05-23T07:41:37;95941.56;;;22.25;84.03
11621;BME280;5866;49.094;11.900;2023-05-23T07:44:04;95943.25;;;21.63;82.74
11621;BME280;5866;49.094;11.900;2023-05-23T07:46:32;95942.44;;;21.39;80.78
11621;BME280;5866;49.094;11.900;2023-05-23T07:49:01;95934.09;;;22.43;82.36
11621;BME280;5866;49.094;11.900;2023-05-23T07:51:28;95943.72;;;22.39;79.09
11621;BME280;5866;49.094;11.900;2023-05-23T07:53:56;95934.56;;;23.18;76.41
11621;BME280;5866;49.094;11.900;2023-05-23T07:56:24;95938.59;;;23.92;69.75
11621;BME280;5866;49.094;11.900;2023-05-23T07:58:52;95938.66;;;24.94;66.23
11621;BME280;5866;49.094;11.900;2023-05-23T08:01:19;95930.16;;;26.06;59.00
11621;BME280;5866;49.094;11.900;2023-05-23T08:03:47;95933.94;;;24.58;62.17
11621;BME280;5866;49.094;11.900;2023-05-23T08:06:16;95947.56;;;23.71;67.06
11621;BME280;5866;49.094;11.900;2023-05-23T08:08:43;95942.84;;;23.28;66.57
11621;BME280;5866;49.094;11.900;2023-05-23T08:11:11;95954.81;;;23.16;68.21
11621;BME280;5866;49.094;11.900;2023-05-23T08:13:40;95949.19;;;23.72;66.55
11621;BME280;5866;49.094;11.900;2023-05-23T08:16:07;95946.94;;;23.69;65.69
11621;BME280;5866;49.094;11.900;2023-05-23T08:18:35;95947.28;;;23.34;68.50
11621;BME280;5866;49.094;11.900;2023-05-23T08:21:03;95942.91;;;22.83;71.91
11621;BME280;5866;49.094;11.900;2023-05-23T08:23:31;95946.78;;;22.43;73.49
11621;BME280;5866;49.094;11.900;2023-05-23T08:25:59;95952.13;;;22.54;76.23
11621;BME280;5866;49.094;11.900;2023-05-23T08:28:26;95957.25;;;22.11;75.56
11621;BME280;5866;49.094;11.900;2023-05-23T08:30:54;95947.88;;;22.02;74.94
11621;BME280;5866;49.094;11.900;2023-05-23T08:33:23;95965.13;;;23.02;69.81
11621;BME280;5866;49.094;11.900;2023-05-23T08:35:51;95958.06;;;22.11;75.75
11621;BME280;5866;49.094;11.900;2023-05-23T08:38:19;95968.75;;;21.32;80.03
11621;BME280;5866;49.094;11.900;2023-05-23T08:40:50;95965.81;;;21.33;79.39
11621;BME280;5866;49.094;11.900;2023-05-23T08:43:18;95959.50;;;23.04;67.88
11621;BME280;5866;49.094;11.900;2023-05-23T08:45:47;95959.94;;;22.39;68.58
11621;BME280;5866;49.094;11.900;2023-05-23T08:48:18;95970.88;;;22.16;72.55
11621;BME280;5866;49.094;11.900;2023-05-23T08:50:47;95962.47;;;22.57;70.66
11621;BME280;5866;49.094;11.900;2023-05-23T08:53:16;95969.59;;;23.08;70.05
11621;BME280;5866;49.094;11.900;2023-05-23T08:55:49;95978.66;;;23.02;65.22
11621;BME280;5866;49.094;11.900;2023-05-23T08:58:17;95974.94;;;21.90;71.24
11621;BME280;5866;49.094;11.900;2023-05-23T09:00:46;95977.59;;;20.98;76.58
11621;BME280;5866;49.094;11.900;2023-05-23T09:03:13;96000.00;;;20.57;83.94
11621;BME280;5866;49.094;11.900;2023-05-23T09:05:42;95987.31;;;19.98;84.48
11621;BME280;5866;49.094;11.900;2023-05-23T09:08:09;95987.84;;;20.36;84.91
11621;BME280;5866;49.094;11.900;2023-05-23T09:10:38;95992.06;;;20.74;85.25
11621;BME280;5866;49.094;11.900;2023-05-23T09:13:07;96001.84;;;20.86;82.47
11621;BME280;5866;49.094;11.900;2023-05-23T09:15:35;95998.53;;;20.73;80.95
11621;BME280;5866;49.094;11.900;2023-05-23T09:18:03;96007.13;;;20.81;87.29
11621;BME280;5866;49.094;11.900;2023-05-23T09:20:32;95997.84;;;20.77;79.85
11621;BME280;5866;49.094;11.900;2023-05-23T09:23:00;96015.00;;;20.94;77.16
11621;BME280;5866;49.094;11.900;2023-05-23T09:25:33;96014.59;;;20.02;84.76
11621;BME280;5866;49.094;11.900;2023-05-23T09:28:04;96013.03;;;19.94;85.82
11621;BME280;5866;49.094;11.900;2023-05-23T09:30:34;96013.53;;;20.39;85.24
11621;BME280;5866;49.094;11.900;2023-05-23T09:33:01;96015.63;;;20.67;81.00
11621;BME280;5866;49.094;11.900;2023-05-23T09:35:31;96009.28;;;20.61;79.19
11621;BME280;5866;49.094;11.900;2023-05-23T09:37:59;96013.88;;;21.60;75.57
11621;BME280;5866;49.094;11.900;2023-05-23T09:40:30;96010.16;;;21.26;78.31
11621;BME280;5866;49.094;11.900;2023-05-23T09:43:01;95998.63;;;21.77;73.03
11621;BME280;5866;49.094;11.900;2023-05-23T09:45:31;96005.09;;;22.27;73.24
11621;BME280;5866;49.094;11.900;2023-05-23T09:48:00;96005.66;;;23.30;64.08
11621;BME280;5866;49.094;11.900;2023-05-23T09:50:30;96013.06;;;22.73;65.39
11621;BME280;5866;49.094;11.900;2023-05-23T09:52:59;96014.03;;;22.96;67.81
11621;BME280;5866;49.094;11.900;2023-05-23T09:55:27;96003.41;;;22.09;67.86
11621;BME280;5866;49.094;11.900;2023-05-23T09:57:57;96017.19;;;21.85;69.43
11621;BME280;5866;49.094;11.900;2023-05-23T10:00:26;96003.16;;;22.11;70.73
11621;BME280;5866;49.094;11.900;2023-05-23T10:02:57;96008.44;;;22.18;71.82
11621;BME280;5866;49.094;11.900;2023-05-23T10:05:35;96012.03;;;21.83;72.88
11621;BME280;5866;49.094;11.900;2023-05-23T10:08:09;96012.38;;;21.52;73.91
11621;BME280;5866;49.094;11.900;2023-05-23T10:11:29;96012.72;;;21.32;74.73
11621;BME280;5866;49.094;11.900;2023-05-23T10:14:09;96012.16;;;22.28;73.81
11621;BME280;5866;49.094;11.900;2023-05-23T10:16:44;96004.19;;;21.82;72.16
11621;BME280;5866;49.094;11.900;2023-05-23T10:19:19;96009.41;;;21.77;69.79
11621;BME280;5866;49.094;11.900;2023-05-23T10:21:57;96007.41;;;21.72;74.48
11621;BME280;5866;49.094;11.900;2023-05-23T10:24:26;96007.09;;;21.92;73.55
11621;BME280;5866;49.094;11.900;2023-05-23T10:26:54;96013.06;;;21.48;73.23
11621;BME280;5866;49.094;11.900;2023-05-23T10:29:22;96012.84;;;21.38;76.60
11621;BME280;5866;49.094;11.900;2023-05-23T10:31:51;96014.59;;;21.20;76.60
11621;BME280;5866;49.094;11.900;2023-05-23T10:34:26;96006.06;;;21.47;76.74
11621;BME280;5866;49.094;11.900;2023-05-23T10:36:59;96010.88;;;21.91;74.51
11621;BME280;5866;49.094;11.900;2023-05-23T10:39:39;96016.41;;;22.24;71.84
11621;BME280;5866;49.094;11.900;2023-05-23T10:42:12;96010.91;;;22.59;72.71
11621;BME280;5866;49.094;11.900;2023-05-23T10:44:41;96010.91;;;22.59;72.57
11621;BME280;5866;49.094;11.900;2023-05-23T10:47:09;96008.97;;;21.80;70.19
11621;BME280;5866;49.094;11.900;2023-05-23T10:49:40;96009.81;;;21.34;74.66
11621;BME280;5866;49.094;11.900;2023-05-23T10:52:10;95999.66;;;22.10;71.01
11621;BME280;5866;49.094;11.900;2023-05-23T10:54:41;96013.59;;;22.19;67.76
11621;BME280;5866;49.094;11.900;2023-05-23T10:57:15;96004.31;;;21.41;69.98
11621;BME280;5866;49.094;11.900;2023-05-23T10:59:43;96016.59;;;21.60;76.37
11621;BME280;5866;49.094;11.900;2023-05-23T11:02:13;96009.06;;;21.62;72.54
11621;BME280;5866;49.094;11.900;2023-05-23T11:04:42;96004.84;;;22.00;70.32
11621;BME280;5866;49.094;11.900;2023-05-23T11:07:29;96002.63;;;21.86;72.63
11621;BME280;5866;49.094;11.900;2023-05-23T11:10:07;96004.03;;;21.77;71.44
11621;BME280;5866;49.094;11.900;2023-05-23T11:12:39;95997.09;;;21.81;70.59
11621;BME280;5866;49.094;11.900;2023-05-23T11:15:20;95995.81;;;21.95;68.24
11621;BME280;5866;49.094;11.900;2023-05-23T11:17:51;95996.41;;;22.65;64.91
11621;BME280;5866;49.094;11.900;2023-05-23T11:20:23;95998.66;;;22.56;64.73
11621;BME280;5866;49.094;11.900;2023-05-23T11:22:59;95995.97;;;22.28;65.22
11621;BME280;5866;49.094;11.900;2023-05-23T11:25:39;95988.81;;;22.62;67.48
11621;BME280;5866;49.094;11.900;2023-05-23T11:28:08;95985.31;;;23.11;60.27
11621;BME280;5866;49.094;11.900;2023-05-23T11:30:36;95987.44;;;22.92;60.32
11621;BME280;5866;49.094;11.900;2023-05-23T11:33:06;95991.88;;;22.14;64.64
11621;BME280;5866;49.094;11.900;2023-05-23T11:35:36;95991.47;;;21.94;65.38
11621;BME280;5866;49.094;11.900;2023-05-23T11:38:05;95992.53;;;21.70;61.92
11621;BME280;5866;49.094;11.900;2023-05-23T11:40:34;95990.94;;;22.20;60.21
11621;BME280;5866;49.094;11.900;2023-05-23T11:43:03;95989.03;;;22.60;58.72
11621;BME280;5866;49.094;11.900;2023-05-23T11:45:32;95981.78;;;23.44;58.04
11621;BME280;5866;49.094;11.900;2023-05-23T11:48:04;95981.41;;;23.35;58.66
11621;BME280;5866;49.094;11.900;2023-05-23T11:50:32;95983.84;;;23.04;57.51
11621;BME280;5866;49.094;11.900;2023-05-23T11:53:00;95983.19;;;22.97;57.63
11621;BME280;5866;49.094;11.900;2023-05-23T11:55:30;95980.03;;;23.33;56.99
11621;BME280;5866;49.094;11.900;2023-05-23T11:57:57;95981.06;;;23.87;53.15
11621;BME280;5866;49.094;11.900;2023-05-23T12:00:25;95977.44;;;22.76;57.03
11621;BME280;5866;49.094;11.900;2023-05-23T12:02:52;95965.97;;;22.86;57.39
11621;BME280;5866;49.094;11.900;2023-05-23T12:05:20;95982.28;;;22.91;61.37
11621;BME280;5866;49.094;11.900;2023-05-23T12:07:48;95972.94;;;22.99;58.25
11621;BME280;5866;49.094;11.900;2023-05-23T12:10:17;95969.91;;;23.45;58.76
11621;BME280;5866;49.094;11.900;2023-05-23T12:12:47;95981.94;;;23.71;57.86
11621;BME280;5866;49.094;11.900;2023-05-23T12:15:15;95977.16;;;23.99;54.58
11621;BME280;5866;49.094;11.900;2023-05-23T12:17:43;95978.94;;;23.34;54.66
11621;BME280;5866;49.094;11.900;2023-05-23T12:20:12;95970.03;;;23.93;55.61
11621;BME280;5866;49.094;11.900;2023-05-23T12:22:40;95985.00;;;24.17;55.81
11621;BME280;5866;49.094;11.900;2023-05-23T12:25:08;95982.78;;;23.38;56.11
11621;BME280;5866;49.094;11.900;2023-05-23T12:27:39;95982.97;;;22.02;57.72
11621;BME280;5866;49.094;11.900;2023-05-23T12:30:10;95977.94;;;23.07;57.56
11621;BME280;5866;49.094;11.900;2023-05-23T12:32:39;96000.41;;;23.57;56.70
11621;BME280;5866;49.094;11.900;2023-05-23T12:35:08;95985.53;;;24.14;54.76
11621;BME280;5866;49.094;11.900;2023-05-23T12:37:38;95993.34;;;24.11;55.20
11621;BME280;5866;49.094;11.900;2023-05-23T12:40:11;96001.84;;;23.81;54.26
11621;BME280;5866;49.094;11.900;2023-05-23T12:42:45;95991.16;;;23.36;54.57
11621;BME280;5866;49.094;11.900;2023-05-23T12:45:14;95995.13;;;23.84;55.86
11621;BME280;5866;49.094;11.900;2023-05-23T12:47:42;95994.16;;;24.60;53.44
11621;BME280;5866;49.094;11.900;2023-05-23T12:50:10;95999.25;;;24.29;53.50
11621;BME280;5866;49.094;11.900;2023-05-23T12:52:38;95996.22;;;24.26;52.26
11621;BME280;5866;49.094;11.900;2023-05-23T12:55:07;95998.78;;;23.23;53.29
11621;BME280;5866;49.094;11.900;2023-05-23T12:57:35;95997.66;;;23.52;53.13
11621;BME280;5866;49.094;11.900;2023-05-23T13:00:04;96006.16;;;23.44;55.97
11621;BME280;5866;49.094;11.900;2023-05-23T13:02:33;96008.50;;;23.74;52.60
11621;BME280;5866;49.094;11.900;2023-05-23T13:05:01;96000.34;;;24.77;50.82
11621;BME280;5866;49.094;11.900;2023-05-23T13:07:28;96007.72;;;23.95;50.59
11621;BME280;5866;49.094;11.900;2023-05-23T13:09:56;96002.19;;;23.68;53.43